Timişoara, România

12:25 AM EET on februarie 10, 2016 (GMT +0200)
Dumbravita | | Change Station
CLOSE
Current Station
Staţie meteo personală
Location: Timisoara, Timis
Elevation: 305 ft
Nearby Weather Stations

Elev 305 ft 45.80 °N, 21.24 °E | Updated 18 seconds ago

Clear
Cer senin
51.1 °F
Feels Like 51.1 °F
N
13.0
Vânt variabil Vânt from SSE
Gusts 13.0 mph

astăzi
High -- | Low -- °F
--% Chance of Precip.
Ieri
High -- | Low -- °F
Precip. -- inch
Presiunea 29.71 inch
Vizibilitatea -9999.0 mile
Nori
Punctul de rouă 29 °F
Umiditatea 62%
Precipitaţii 0.00 inch
Adâncimea zăpezii Not available.
7:45 AM 5:53 PM
Lună Nouă, 2% visible
METAR LRTR 092200Z 17014KT CAVOK 12/05 Q1006
Presiunea 29.71 inch
Vizibilitatea -9999.0 mile
Nori
Punctul de rouă 29 °F
Umiditatea 62%
Precipitaţii 0.00 inch
Adâncimea zăpezii Not available.
7:45 AM 5:53 PM
Lună Nouă, 2% visible
METAR LRTR 092200Z 17014KT CAVOK 12/05 Q1006

10-Day Weather Forecast

Almanac

Astronomie

Feb. 10, 2016 Răsărit Apus
Timpul Actual
Crepusculul Civil
Crepusculul nautic
Răsărit Astronomic
Luna
Durata zilei lumină
Lungimea zilei
Tomorrow will be .
, % of the Moon is Illuminated

Extremele de azi

Country Highs Country Lows

Community

WunderPhotos

Upload Photos

1,891,718 photos uploaded!

WunderBlog® & News

Nearby

Calitatea aerului

  Calitatea aerului Index de calitate a aerului Poluat
Not available.

Adâncimea zapezii

Station Depth Elevation

Earthquake Activity

Oraş Distance Mag. Time & Date
Minimum magnitude displayed is 2.5.

Coastal Water Temperatures

Locul Temperatura

Stations

Nearby Weather Stations

Locaţia staţiei Temp Vânt rece Punctul de rouă Umiditatea Vânt Precip. Elev Actualizare Type